createdAt,value
2023-03-27T00:01:30.773Z,11.70
2023-03-27T00:04:02.296Z,11.10
2023-03-27T00:06:34.577Z,14.90
2023-03-27T00:09:04.013Z,18.60
2023-03-27T00:11:33.217Z,17.00
2023-03-27T00:14:04.470Z,19.30
2023-03-27T00:16:32.935Z,17.40
2023-03-27T00:19:01.233Z,19.10
2023-03-27T00:21:35.430Z,20.10
2023-03-27T00:24:04.014Z,21.30
2023-03-27T00:26:32.599Z,19.90
2023-03-27T00:29:04.498Z,18.20
2023-03-27T00:31:36.463Z,17.80
2023-03-27T00:34:04.568Z,16.30
2023-03-27T00:36:34.140Z,20.20
2023-03-27T00:39:02.454Z,18.10
2023-03-27T00:41:31.168Z,15.90
2023-03-27T00:43:59.665Z,22.30
2023-03-27T00:46:44.067Z,20.80
2023-03-27T00:49:12.358Z,16.80
2023-03-27T00:51:41.756Z,21.20
2023-03-27T00:54:10.976Z,15.20
2023-03-27T00:56:40.273Z,16.60
2023-03-27T00:59:10.859Z,17.00
2023-03-27T01:01:40.035Z,14.70
2023-03-27T01:04:09.221Z,17.50
2023-03-27T01:06:37.779Z,22.90
2023-03-27T01:09:09.412Z,20.10
2023-03-27T01:11:54.504Z,19.00
2023-03-27T01:14:37.691Z,22.00
2023-03-27T01:17:30.921Z,23.80
2023-03-27T01:20:27.521Z,23.30
2023-03-27T01:23:35.923Z,27.60
2023-03-27T01:26:14.906Z,23.30
2023-03-27T01:29:18.217Z,26.00
2023-03-27T01:31:58.621Z,23.50
2023-03-27T01:34:41.269Z,24.10
2023-03-27T01:37:47.883Z,28.00
2023-03-27T01:40:25.426Z,24.10
2023-03-27T01:43:04.465Z,23.60
2023-03-27T01:45:42.836Z,20.00
2023-03-27T01:48:14.345Z,20.10
2023-03-27T01:50:48.690Z,22.90
2023-03-27T01:53:34.281Z,21.50
2023-03-27T01:56:13.741Z,20.50
2023-03-27T01:58:46.670Z,16.60
2023-03-27T02:01:18.266Z,20.80
2023-03-27T02:03:53.050Z,17.20
2023-03-27T02:06:24.003Z,18.30
2023-03-27T02:09:18.122Z,21.60
2023-03-27T02:11:57.595Z,21.60
2023-03-27T02:14:31.181Z,17.00
2023-03-27T02:17:02.190Z,16.00
2023-03-27T02:19:35.225Z,13.60
2023-03-27T02:22:03.710Z,14.20
2023-03-27T02:24:43.554Z,16.00
2023-03-27T02:27:21.335Z,12.20
2023-03-27T02:30:10.494Z,12.60
2023-03-27T02:33:17.281Z,15.10
2023-03-27T02:35:52.106Z,12.80
2023-03-27T02:38:38.612Z,12.60
2023-03-27T02:41:41.198Z,17.00
2023-03-27T02:44:52.615Z,15.10
2023-03-27T02:47:29.055Z,12.10
2023-03-27T02:50:05.540Z,13.50
2023-03-27T02:52:42.753Z,13.50
2023-03-27T02:55:34.347Z,12.50
2023-03-27T02:58:05.607Z,10.70
2023-03-27T03:00:52.339Z,12.10
2023-03-27T03:04:04.216Z,14.40
2023-03-27T03:06:45.582Z,13.10
2023-03-27T03:09:15.101Z,13.40
2023-03-27T03:11:48.993Z,14.20
2023-03-27T03:14:21.406Z,13.40
2023-03-27T03:16:49.571Z,10.60
2023-03-27T03:19:25.293Z,12.70
2023-03-27T03:21:54.413Z,12.60
2023-03-27T03:24:22.661Z,10.80
2023-03-27T03:26:54.400Z,10.90
2023-03-27T03:29:22.490Z,15.10
2023-03-27T03:32:01.526Z,13.60
2023-03-27T03:34:30.739Z,15.20
2023-03-27T03:36:59.802Z,18.70
2023-03-27T03:39:33.240Z,15.10
2023-03-27T03:42:02.792Z,19.00
2023-03-27T03:44:31.693Z,16.00
2023-03-27T03:47:01.648Z,13.20
2023-03-27T03:49:30.027Z,15.70
2023-03-27T03:52:03.545Z,13.90
2023-03-27T03:54:33.861Z,16.20
2023-03-27T03:57:03.309Z,18.10
2023-03-27T03:59:32.714Z,20.20
2023-03-27T04:02:29.776Z,17.60
2023-03-27T04:05:12.653Z,24.70
2023-03-27T04:07:42.502Z,18.70
2023-03-27T04:10:41.689Z,12.80
2023-03-27T04:13:21.278Z,16.20
2023-03-27T04:16:15.760Z,14.60
2023-03-27T04:18:55.546Z,12.20
2023-03-27T04:21:26.959Z,13.40
2023-03-27T04:24:02.370Z,16.40
2023-03-27T04:26:43.513Z,14.20
2023-03-27T04:29:32.074Z,14.70
2023-03-27T04:32:00.178Z,18.50
2023-03-27T04:34:49.303Z,15.80
2023-03-27T04:40:05.714Z,17.40
2023-03-27T04:42:42.644Z,13.50
2023-03-27T04:45:13.139Z,10.30
2023-03-27T04:47:46.581Z,10.20
2023-03-27T04:50:15.487Z,11.40
2023-03-27T04:52:44.065Z,11.10
2023-03-27T04:55:12.543Z,10.60
2023-03-27T04:57:46.329Z,12.20
2023-03-27T05:00:19.767Z,11.90
2023-03-27T05:02:48.701Z,12.10
2023-03-27T05:05:22.440Z,11.20
2023-03-27T05:08:30.080Z,11.70
2023-03-27T05:10:58.751Z,10.70
2023-03-27T05:13:30.677Z,9.70
2023-03-27T05:16:01.909Z,9.70
2023-03-27T05:18:32.039Z,9.90
2023-03-27T05:21:06.036Z,9.90
2023-03-27T05:23:35.004Z,11.20
2023-03-27T05:26:03.597Z,11.20
2023-03-27T05:28:48.940Z,9.90
2023-03-27T05:31:17.373Z,7.20
2023-03-27T05:33:54.973Z,7.60
2023-03-27T05:36:23.306Z,7.30
2023-03-27T05:38:53.276Z,5.70
2023-03-27T05:41:43.370Z,6.50
2023-03-27T05:44:12.335Z,5.20
2023-03-27T05:46:43.027Z,5.70
2023-03-27T05:49:20.340Z,5.60
2023-03-27T05:51:52.730Z,5.70
2023-03-27T05:57:10.925Z,5.90
2023-03-27T05:59:43.771Z,7.50
2023-03-27T06:02:21.325Z,4.60
2023-03-27T06:05:04.591Z,5.80
2023-03-27T06:07:42.988Z,6.00
2023-03-27T06:10:13.852Z,5.30
2023-03-27T06:13:08.906Z,4.50
2023-03-27T06:15:46.909Z,5.30
2023-03-27T06:18:38.477Z,4.30
2023-03-27T06:21:08.987Z,3.70
2023-03-27T06:23:37.896Z,4.30
2023-03-27T06:26:11.324Z,3.40
2023-03-27T06:31:12.099Z,5.60
2023-03-27T06:33:48.994Z,5.90
2023-03-27T06:36:38.045Z,4.90
2023-03-27T06:39:08.417Z,5.80
2023-03-27T06:41:36.817Z,4.50
2023-03-27T06:44:07.987Z,8.80
2023-03-27T06:46:48.730Z,6.00
2023-03-27T06:49:36.142Z,4.30
2023-03-27T06:52:12.121Z,4.10
2023-03-27T06:54:40.875Z,5.10
2023-03-27T06:57:08.940Z,3.20
2023-03-27T06:59:58.836Z,4.70
2023-03-27T07:02:45.007Z,4.30
2023-03-27T07:05:40.745Z,3.10
2023-03-27T07:10:56.278Z,4.30
2023-03-27T07:13:35.886Z,4.20
2023-03-27T07:16:07.054Z,5.00
2023-03-27T07:18:36.257Z,10.50
2023-03-27T07:21:06.057Z,2.60
2023-03-27T07:23:34.282Z,3.60
2023-03-27T07:26:05.090Z,4.80
2023-03-27T07:28:52.138Z,2.90
2023-03-27T07:31:36.500Z,3.50
2023-03-27T07:34:09.450Z,3.40
2023-03-27T07:37:09.737Z,3.60
2023-03-27T07:39:41.955Z,4.90
2023-03-27T07:42:10.314Z,3.60
2023-03-27T07:44:53.404Z,4.60
2023-03-27T07:47:21.428Z,4.10
2023-03-27T07:49:49.497Z,4.40
2023-03-27T07:52:18.323Z,3.90
2023-03-27T07:54:52.200Z,6.40
2023-03-27T07:57:23.377Z,3.60
2023-03-27T07:59:57.468Z,4.00
2023-03-27T08:02:45.766Z,4.80
2023-03-27T08:05:14.521Z,7.60
2023-03-27T08:07:48.243Z,6.50
2023-03-27T08:10:27.856Z,3.80
2023-03-27T08:13:01.624Z,5.20
2023-03-27T08:15:29.867Z,4.40
2023-03-27T08:17:59.942Z,3.60
2023-03-27T08:20:30.683Z,4.80
2023-03-27T08:23:00.868Z,3.30
2023-03-27T08:25:33.360Z,3.90
2023-03-27T08:28:03.000Z,3.50
2023-03-27T08:30:31.796Z,5.20
2023-03-27T08:33:00.589Z,11.00
2023-03-27T08:35:28.931Z,8.80
2023-03-27T08:37:57.578Z,5.80
2023-03-27T08:40:58.902Z,4.90
2023-03-27T08:43:43.036Z,6.00
2023-03-27T08:46:24.222Z,5.80
2023-03-27T08:48:57.810Z,6.20
2023-03-27T08:51:47.784Z,4.30
2023-03-27T08:54:19.115Z,6.30
2023-03-27T08:56:49.033Z,8.30
2023-03-27T08:59:19.936Z,6.40
2023-03-27T09:02:07.181Z,8.80
2023-03-27T09:04:38.794Z,6.10
2023-03-27T09:07:14.031Z,7.40
2023-03-27T09:10:10.197Z,7.90
2023-03-27T09:13:07.811Z,6.10
2023-03-27T09:15:58.508Z,6.20
2023-03-27T09:18:28.074Z,6.60
2023-03-27T09:20:59.201Z,8.10
2023-03-27T09:26:23.768Z,6.70
2023-03-27T09:29:05.663Z,10.90
2023-03-27T09:31:47.041Z,7.20
2023-03-27T09:34:17.976Z,6.10
2023-03-27T09:36:49.769Z,5.40
2023-03-27T09:39:22.876Z,7.40
2023-03-27T09:41:58.668Z,4.80
2023-03-27T09:44:37.006Z,4.70
2023-03-27T09:47:09.557Z,3.50
2023-03-27T09:49:38.721Z,4.60
2023-03-27T09:52:08.808Z,7.10
2023-03-27T09:54:52.890Z,7.80
2023-03-27T09:57:22.652Z,6.10
2023-03-27T10:00:20.679Z,6.10
2023-03-27T10:03:08.127Z,7.00
2023-03-27T10:05:38.958Z,8.20
2023-03-27T10:08:31.444Z,5.00
2023-03-27T10:11:08.839Z,4.50
2023-03-27T10:13:57.619Z,5.70
2023-03-27T10:16:28.010Z,4.90
2023-03-27T10:19:06.711Z,3.90
2023-03-27T10:21:42.766Z,4.60
2023-03-27T10:24:31.765Z,4.50
2023-03-27T10:27:24.921Z,4.50
2023-03-27T10:30:28.208Z,6.50
2023-03-27T10:33:02.476Z,7.50
2023-03-27T10:35:51.126Z,5.90
2023-03-27T10:38:25.265Z,3.50
2023-03-27T10:41:28.760Z,3.80
2023-03-27T10:43:58.824Z,6.50
2023-03-27T10:46:28.777Z,6.30
2023-03-27T10:49:12.678Z,3.80
2023-03-27T10:51:47.562Z,3.50
2023-03-27T10:54:38.023Z,2.70
2023-03-27T10:57:10.900Z,3.20
2023-03-27T10:59:50.779Z,9.20
2023-03-27T11:02:43.805Z,9.40
2023-03-27T11:05:18.890Z,5.50
2023-03-27T11:07:57.267Z,9.70
2023-03-27T11:10:42.384Z,3.90
2023-03-27T11:13:15.436Z,4.40
2023-03-27T11:15:59.640Z,4.80
2023-03-27T11:19:03.342Z,4.60
2023-03-27T11:21:39.186Z,3.40
2023-03-27T11:24:15.384Z,4.20
2023-03-27T11:27:11.021Z,3.10
2023-03-27T11:29:47.558Z,3.60
2023-03-27T11:32:23.459Z,3.90
2023-03-27T11:35:04.247Z,5.80
2023-03-27T11:37:47.204Z,3.20
2023-03-27T11:40:20.202Z,2.60
2023-03-27T11:42:49.033Z,3.00
2023-03-27T11:45:19.211Z,5.00
2023-03-27T11:48:09.367Z,4.50
2023-03-27T11:50:53.292Z,4.70
2023-03-27T11:53:39.905Z,12.30
2023-03-27T11:56:32.807Z,3.20
2023-03-27T11:59:29.611Z,4.90
2023-03-27T12:02:34.510Z,6.80
2023-03-27T12:05:17.238Z,3.50
2023-03-27T12:08:07.264Z,3.80
2023-03-27T12:10:38.769Z,3.40
2023-03-27T12:13:40.664Z,5.60
2023-03-27T12:16:23.199Z,4.80
2023-03-27T12:19:28.945Z,6.50
2023-03-27T12:22:52.864Z,8.20
2023-03-27T12:25:45.409Z,3.10
2023-03-27T12:28:35.093Z,2.40
2023-03-27T12:31:49.556Z,3.40
2023-03-27T12:34:42.203Z,5.10
2023-03-27T12:37:12.300Z,5.20
2023-03-27T12:40:29.103Z,7.30
2023-03-27T12:43:17.946Z,5.80
2023-03-27T12:46:16.138Z,7.30
2023-03-27T12:48:52.818Z,5.20
2023-03-27T12:51:35.740Z,4.30
2023-03-27T12:54:28.868Z,4.10
2023-03-27T12:56:58.751Z,5.10
2023-03-27T12:59:29.512Z,4.10
2023-03-27T13:02:04.063Z,6.30
2023-03-27T13:05:10.719Z,3.70
2023-03-27T13:07:53.493Z,3.50
2023-03-27T13:11:04.498Z,5.70
2023-03-27T13:14:02.837Z,4.80
2023-03-27T13:16:41.126Z,4.90
2023-03-27T13:19:37.411Z,6.80
2023-03-27T13:22:43.628Z,9.80
2023-03-27T13:25:31.798Z,7.20
2023-03-27T13:28:35.595Z,4.00
2023-03-27T13:31:47.169Z,6.50
2023-03-27T13:34:27.650Z,4.00
2023-03-27T13:37:11.363Z,5.10
2023-03-27T13:40:01.620Z,7.00
2023-03-27T13:42:39.112Z,4.80
2023-03-27T13:45:20.577Z,7.80
2023-03-27T13:48:26.551Z,5.80
2023-03-27T13:51:17.998Z,6.60
2023-03-27T13:54:08.529Z,4.40
2023-03-27T13:56:56.092Z,6.90
2023-03-27T14:00:37.644Z,7.90
2023-03-27T14:03:21.648Z,4.00
2023-03-27T14:06:05.196Z,6.00
2023-03-27T14:09:02.175Z,3.10
2023-03-27T14:12:19.105Z,5.90
2023-03-27T14:15:19.198Z,4.10
2023-03-27T14:18:00.511Z,3.30
2023-03-27T14:20:40.595Z,6.90
2023-03-27T14:23:26.532Z,7.10
2023-03-27T14:26:20.553Z,20.80
2023-03-27T14:28:51.718Z,4.10
2023-03-27T14:31:28.991Z,4.30
2023-03-27T14:34:25.009Z,5.00
2023-03-27T14:37:39.041Z,3.80
2023-03-27T14:40:33.478Z,7.30
2023-03-27T14:43:03.634Z,7.90
2023-03-27T14:48:10.039Z,4.30
2023-03-27T14:50:47.828Z,7.60
2023-03-27T14:53:18.541Z,7.60
2023-03-27T14:56:37.068Z,6.00
2023-03-27T14:59:28.227Z,7.10
2023-03-27T15:02:00.054Z,6.80
2023-03-27T15:04:30.103Z,7.10
2023-03-27T15:07:18.869Z,8.40
2023-03-27T15:10:07.665Z,5.00
2023-03-27T15:12:58.496Z,6.40
2023-03-27T15:15:43.009Z,5.30
2023-03-27T15:18:33.102Z,5.70
2023-03-27T15:21:04.385Z,9.40
2023-03-27T15:23:45.014Z,5.80
2023-03-27T15:26:27.325Z,5.60
2023-03-27T15:29:01.781Z,6.10
2023-03-27T15:31:30.946Z,9.30
2023-03-27T15:34:06.187Z,7.20
2023-03-27T15:36:35.176Z,9.20
2023-03-27T15:39:05.136Z,9.50
2023-03-27T15:41:33.807Z,7.90
2023-03-27T15:44:13.141Z,11.50
2023-03-27T15:47:01.155Z,12.60
2023-03-27T15:49:37.006Z,23.50
2023-03-27T15:52:30.243Z,16.60
2023-03-27T15:54:59.387Z,11.50
2023-03-27T15:57:29.606Z,12.60
2023-03-27T16:00:02.871Z,10.00
2023-03-27T16:02:47.197Z,15.70
2023-03-27T16:05:16.319Z,15.80
2023-03-27T16:07:47.238Z,17.60
2023-03-27T16:10:29.408Z,16.90
2023-03-27T16:13:02.755Z,13.60
2023-03-27T16:15:34.788Z,16.90
2023-03-27T16:18:13.575Z,15.60
2023-03-27T16:20:42.150Z,19.90
2023-03-27T16:23:10.301Z,16.20
2023-03-27T16:25:38.266Z,19.20
2023-03-27T16:28:07.493Z,16.10
2023-03-27T16:30:38.914Z,22.30
2023-03-27T16:33:15.993Z,18.80
2023-03-27T16:35:45.458Z,15.40
2023-03-27T16:38:14.117Z,14.20
2023-03-27T16:40:43.529Z,14.10
2023-03-27T16:43:11.910Z,12.80
2023-03-27T16:45:41.149Z,12.70
2023-03-27T16:48:10.277Z,9.70
2023-03-27T16:50:38.389Z,11.60
2023-03-27T16:53:06.978Z,11.10
2023-03-27T16:55:34.893Z,14.70
2023-03-27T16:58:03.648Z,12.00
2023-03-27T17:00:31.913Z,10.30
2023-03-27T17:03:19.970Z,10.40
2023-03-27T17:05:48.277Z,9.50
2023-03-27T17:08:18.540Z,11.60
2023-03-27T17:10:47.824Z,12.00
2023-03-27T17:13:18.045Z,11.20
2023-03-27T17:15:51.299Z,8.70
2023-03-27T17:18:20.665Z,9.20
2023-03-27T17:20:48.804Z,12.10
2023-03-27T17:25:59.134Z,12.90
2023-03-27T17:28:28.247Z,8.60
2023-03-27T17:31:03.994Z,11.60
2023-03-27T17:33:32.802Z,8.80
2023-03-27T17:36:00.236Z,12.80
2023-03-27T17:38:27.860Z,13.60
2023-03-27T17:40:54.684Z,15.80
2023-03-27T17:43:21.269Z,13.00
2023-03-27T17:45:48.952Z,12.10
2023-03-27T17:48:16.394Z,14.20
2023-03-27T17:50:49.831Z,16.50
2023-03-27T17:53:27.043Z,15.40
2023-03-27T17:55:53.522Z,16.90
2023-03-27T17:58:21.701Z,15.10
2023-03-27T18:00:48.577Z,18.60
2023-03-27T18:03:16.091Z,19.40
2023-03-27T18:05:43.137Z,14.40
2023-03-27T18:08:11.743Z,17.80
2023-03-27T18:10:44.386Z,13.60
2023-03-27T18:13:11.949Z,19.30
2023-03-27T18:15:40.063Z,18.00
2023-03-27T18:18:07.302Z,16.40
2023-03-27T18:20:34.021Z,14.60
2023-03-27T18:23:00.839Z,17.90
2023-03-27T18:25:27.685Z,22.80
2023-03-27T18:27:54.185Z,16.90
2023-03-27T18:30:23.249Z,13.10
2023-03-27T18:32:50.054Z,12.60
2023-03-27T18:35:18.867Z,10.30
2023-03-27T18:37:46.198Z,10.30
2023-03-27T18:40:17.733Z,8.60
2023-03-27T18:43:04.184Z,11.50
2023-03-27T18:45:31.703Z,12.20
2023-03-27T18:47:58.727Z,7.10
2023-03-27T18:50:33.030Z,9.70
2023-03-27T18:53:00.988Z,11.80
2023-03-27T18:55:27.729Z,7.30
2023-03-27T18:57:54.463Z,9.30
2023-03-27T19:00:21.528Z,10.30
2023-03-27T19:02:55.904Z,12.00
2023-03-27T19:05:22.492Z,9.90
2023-03-27T19:07:49.240Z,8.70
2023-03-27T19:10:17.523Z,7.30
2023-03-27T19:12:49.082Z,12.10
2023-03-27T19:15:34.640Z,9.80
2023-03-27T19:18:27.777Z,11.10
2023-03-27T19:21:18.282Z,7.40
2023-03-27T19:24:02.149Z,8.90
2023-03-27T19:26:36.662Z,9.00
2023-03-27T19:29:04.311Z,8.30
2023-03-27T19:31:30.918Z,8.90
2023-03-27T19:33:58.234Z,7.90
2023-03-27T19:36:26.521Z,5.30
2023-03-27T19:38:53.454Z,10.30
2023-03-27T19:41:23.493Z,7.20
2023-03-27T19:43:51.149Z,7.20
2023-03-27T19:46:17.938Z,11.80
2023-03-27T19:48:46.773Z,14.40
2023-03-27T19:51:22.267Z,8.30
2023-03-27T19:53:54.790Z,11.60
2023-03-27T19:56:24.627Z,9.40
2023-03-27T19:58:51.728Z,9.00
2023-03-27T20:01:21.555Z,12.30
2023-03-27T20:03:48.632Z,13.50
2023-03-27T20:06:18.975Z,9.90
2023-03-27T20:08:45.656Z,8.60
2023-03-27T20:11:14.132Z,7.40
2023-03-27T20:13:53.151Z,9.90
2023-03-27T20:16:25.491Z,10.50
2023-03-27T20:19:02.599Z,8.30
2023-03-27T20:21:33.265Z,10.20
2023-03-27T20:24:00.664Z,11.00
2023-03-27T20:26:38.168Z,10.00
2023-03-27T20:31:40.168Z,12.50
2023-03-27T20:34:06.912Z,11.10
2023-03-27T20:36:34.236Z,10.80
2023-03-27T20:39:06.466Z,14.50
2023-03-27T20:41:38.073Z,10.70
2023-03-27T20:44:14.437Z,10.20
2023-03-27T20:46:46.569Z,11.60
2023-03-27T20:49:33.520Z,19.50
2023-03-27T20:52:09.731Z,23.00
2023-03-27T20:54:36.288Z,12.00
2023-03-27T20:57:03.564Z,11.10
2023-03-27T20:59:30.808Z,11.50
2023-03-27T21:01:59.868Z,13.60
2023-03-27T21:04:28.995Z,10.50
2023-03-27T21:06:55.959Z,9.20
2023-03-27T21:09:25.423Z,11.90
2023-03-27T21:11:54.536Z,10.90
2023-03-27T21:14:21.395Z,10.20
2023-03-27T21:16:49.044Z,8.90
2023-03-27T21:19:16.434Z,9.70
2023-03-27T21:21:43.184Z,8.40
2023-03-27T21:24:09.953Z,10.30
2023-03-27T21:26:37.509Z,8.10
2023-03-27T21:29:10.536Z,7.20
2023-03-27T21:31:39.344Z,6.50
2023-03-27T21:34:06.229Z,8.50
2023-03-27T21:36:34.960Z,8.70
2023-03-27T21:39:02.137Z,8.60
2023-03-27T21:41:28.973Z,8.50
2023-03-27T21:43:55.648Z,7.90
2023-03-27T21:46:22.494Z,8.60
2023-03-27T21:48:49.473Z,9.70
2023-03-27T21:51:16.175Z,9.20
2023-03-27T21:53:42.767Z,7.90
2023-03-27T21:56:10.274Z,8.00
2023-03-27T21:58:37.295Z,9.40
2023-03-27T22:01:06.418Z,10.40
2023-03-27T22:03:34.307Z,9.80
2023-03-27T22:06:11.763Z,10.10
2023-03-27T22:08:40.196Z,8.20
2023-03-27T22:11:07.175Z,9.80
2023-03-27T22:13:37.127Z,10.50
2023-03-27T22:16:13.085Z,11.70
2023-03-27T22:18:41.974Z,12.00
2023-03-27T22:21:21.499Z,11.70
2023-03-27T22:26:20.641Z,11.20
2023-03-27T22:28:49.199Z,10.20
2023-03-27T22:31:16.938Z,11.70
2023-03-27T22:33:46.368Z,14.60
2023-03-27T22:38:42.629Z,12.70
2023-03-27T22:41:11.193Z,14.20
2023-03-27T22:43:39.784Z,14.50
2023-03-27T22:46:13.996Z,12.00
2023-03-27T22:48:43.100Z,12.20
2023-03-27T22:51:10.412Z,13.50
2023-03-27T22:53:37.397Z,11.20
2023-03-27T22:56:05.171Z,12.90
2023-03-27T22:58:32.763Z,8.70
2023-03-27T23:00:59.875Z,13.10
2023-03-27T23:03:27.247Z,14.50
2023-03-27T23:05:54.774Z,11.30
2023-03-27T23:08:23.882Z,12.90
2023-03-27T23:11:01.257Z,9.10
2023-03-27T23:13:33.532Z,11.70
2023-03-27T23:16:02.740Z,11.20
2023-03-27T23:18:30.127Z,10.20
2023-03-27T23:21:00.281Z,13.30
2023-03-27T23:23:28.092Z,10.60
2023-03-27T23:25:54.956Z,12.20
2023-03-27T23:28:23.570Z,11.70
2023-03-27T23:30:54.157Z,10.00
2023-03-27T23:33:36.697Z,10.80
2023-03-27T23:36:23.362Z,12.80
2023-03-27T23:38:52.616Z,10.60
2023-03-27T23:41:19.929Z,14.40
2023-03-27T23:43:46.632Z,12.40
2023-03-27T23:46:13.730Z,10.10
2023-03-27T23:48:41.849Z,12.00
2023-03-27T23:51:11.879Z,9.50
2023-03-27T23:53:42.104Z,9.00
2023-03-27T23:56:09.360Z,10.80
2023-03-27T23:58:36.512Z,12.50
